Time;durP1;ratioP1;P1;durP2;ratioP2;P2;SDS_P1;SDS_P2;PMS_P1;PMS_P2;Temp;Humidity;BMP_temperature;BMP_pressure;BME280_temperature;BME280_humidity;BME280_pressure;Samples;Min_cycle;Max_cycle;Signal;HPM_P1;HPM_P2
2023/04/18 00:00:11;;;;;;;;;;;;;;;;;;5055218;28;20042;-66
2023/04/18 00:02:38;;;;;;;;;;;;;;;;;;5054683;28;19959;-66
2023/04/18 00:05:04;;;;;;;;;;;;;;;;;;5054553;28;19975;-66
2023/04/18 00:07:30;;;;;;;;;;;;;;;;;;5055127;28;20355;-66
2023/04/18 00:09:56;;;;;;;;;;;;;;;;;;5054514;28;20042;-66
2023/04/18 00:12:22;;;;;;;;;;;;;;;;;;5054490;28;19959;-65
2023/04/18 00:14:49;;;;;;;;;;;;;;;;;;5054692;28;20002;-67
2023/04/18 00:17:15;;;;;;;;;;;;;;;;;;5054362;28;19998;-66
2023/04/18 00:19:42;;;;;;;;;;;;;;;;;;5054618;28;19955;-67
2023/04/18 00:22:07;;;;;;;;;;;;;;;;;;5054094;28;19995;-66
2023/04/18 00:24:33;;;;;;;;;;;;;;;;;;5054456;28;19983;-66
2023/04/18 00:27:00;;;;;;;;;;;;;;;;;;5054202;28;19963;-66
2023/04/18 00:29:26;;;;;;;;;;;;;;;;;;5054304;28;20436;-66
2023/04/18 00:31:52;;;;;;;;;;;;;;;;;;5054705;28;19955;-67
2023/04/18 00:34:18;;;;;;;;;;;;;;;;;;5054369;28;19963;-66
2023/04/18 00:36:44;;;;;;;;;;;;;;;;;;5054351;28;19956;-67
2023/04/18 00:39:10;;;;;;;;;;;;;;;;;;5054072;28;20006;-66
2023/04/18 00:41:36;;;;;;;;;;;;;;;;;;5054240;28;19956;-66
2023/04/18 00:44:02;;;;;;;;;;;;;;;;;;5053860;28;20439;-66
2023/04/18 00:46:27;;;;;;;;;;;;;;;;;;5053896;28;20055;-66
2023/04/18 00:48:53;;;;;;;;;;;;;;;;;;5054171;28;19991;-67
2023/04/18 00:51:20;;;;;;;;;;;;;;;;;;5054904;28;19960;-66
2023/04/18 00:53:46;;;;;;;;;;;;;;;;;;5053793;28;20418;-66
2023/04/18 00:56:11;;;;;;;;;;;;;;;;;;5053753;28;19962;-65
2023/04/18 00:58:39;;;;;;;;;;;;;;;;;;5053983;28;19963;-66
2023/04/18 01:01:05;;;;;;;;;;;;;;;;;;5054285;28;20042;-65
2023/04/18 01:03:31;;;;;;;;;;;;;;;;;;5053585;28;20082;-66
2023/04/18 01:05:57;;;;;;;;;;;;;;;;;;5053678;28;19960;-66
2023/04/18 01:08:23;;;;;;;;;;;;;;;;;;5053134;28;20094;-66
2023/04/18 01:10:49;;;;;;;;;;;;;;;;;;5053586;28;19956;-65
2023/04/18 01:13:15;;;;;;;;;;;;;;;;;;5053608;28;20417;-65
2023/04/18 01:15:41;;;;;;;;;;;;;;;;;;5053546;28;19998;-66
2023/04/18 01:18:07;;;;;;;;;;;;;;;;;;5053507;28;19959;-66
2023/04/18 01:20:34;;;;;;;;;;;;;;;;;;5053759;28;20379;-67
2023/04/18 01:22:59;;;;;;;;;;;;;;;;;;5053097;28;20471;-66
2023/04/18 01:25:25;;;;;;;;;;;;;;;;;;5053932;28;19994;-66
2023/04/18 01:27:53;;;;;;;;;;;;;;;;;;5053669;28;19960;-66
2023/04/18 01:30:19;;;;;;;;;;;;;;;;;;5053893;28;20026;-65
2023/04/18 01:32:45;;;;;;;;;;;;;;;;;;5053423;28;19984;-65
2023/04/18 01:35:11;;;;;;;;;;;;;;;;;;5053648;28;19963;-65
2023/04/18 01:37:37;;;;;;;;;;;;;;;;;;5053325;28;19959;-67
2023/04/18 01:40:03;;;;;;;;;;;;;;;;;;5053307;28;19956;-67
2023/04/18 01:42:29;;;;;;;;;;;;;;;;;;5052020;28;19967;-66
2023/04/18 01:44:55;;;;;;;;;;;;;;;;;;5053205;28;19975;-66
2023/04/18 01:47:21;;;;;;;;;;;;;;;;;;5053223;28;19956;-66
2023/04/18 01:49:47;;;;;;;;;;;;;;;;;;5053472;28;20010;-66
2023/04/18 01:52:13;;;;;;;;;;;;;;;;;;5053787;28;20389;-65
2023/04/18 01:54:39;;;;;;;;;;;;;;;;;;5053179;28;19963;-66
2023/04/18 01:57:04;;;;;;;;;;;;;;;;;;5053158;28;19964;-65
2023/04/18 01:59:30;;;;;;;;;;;;;;;;;;5053676;28;20300;-66
2023/04/18 02:01:56;;;;;;;;;;;;;;;;;;5053366;28;20000;-66
2023/04/18 02:04:22;;;;;;;;;;;;;;;;;;5053018;28;19981;-65
2023/04/18 02:06:48;;;;;;;;;;;;;;;;;;5053113;28;20427;-66
2023/04/18 02:09:14;;;;;;;;;;;;;;;;;;5053074;28;19963;-66
2023/04/18 02:11:40;;;;;;;;;;;;;;;;;;5053033;28;20026;-65
2023/04/18 02:14:06;;;;;;;;;;;;;;;;;;5053287;28;20035;-66
2023/04/18 02:16:33;;;;;;;;;;;;;;;;;;5053310;28;20416;-66
2023/04/18 02:18:59;;;;;;;;;;;;;;;;;;5053741;28;20413;-65
2023/04/18 02:21:24;;;;;;;;;;;;;;;;;;5056404;28;20478;-66
2023/04/18 02:23:50;;;;;;;;;;;;;;;;;;5057056;28;19975;-65
2023/04/18 02:26:16;;;;;;;;;;;;;;;;;;5056479;28;20009;-66
2023/04/18 02:28:44;;;;;;;;;;;;;;;;;;5056029;28;20290;-66
2023/04/18 02:31:13;;;;;;;;;;;;;;;;;;5056340;28;20033;-66
2023/04/18 02:33:39;;;;;;;;;;;;;;;;;;5056383;28;19960;-65
2023/04/18 02:36:05;;;;;;;;;;;;;;;;;;5056688;28;19956;-66
2023/04/18 02:38:31;;;;;;;;;;;;;;;;;;5056262;28;20051;-65
2023/04/18 02:40:57;;;;;;;;;;;;;;;;;;5056244;28;19960;-65
2023/04/18 02:43:23;;;;;;;;;;;;;;;;;;5056154;28;20427;-66
2023/04/18 02:45:49;;;;;;;;;;;;;;;;;;5056166;28;19960;-66
2023/04/18 02:48:14;;;;;;;;;;;;;;;;;;5056673;28;20405;-66
2023/04/18 02:50:40;;;;;;;;;;;;;;;;;;5056081;28;19956;-66
2023/04/18 02:53:06;;;;;;;;;;;;;;;;;;5056318;28;19956;-66
2023/04/18 02:55:32;;;;;;;;;;;;;;;;;;5055979;28;20413;-66
2023/04/18 02:57:58;;;;;;;;;;;;;;;;;;5055940;28;19960;-66
2023/04/18 03:00:24;;;;;;;;;;;;;;;;;;5056417;28;20487;-67
2023/04/18 03:02:51;;;;;;;;;;;;;;;;;;5056135;28;19955;-66
2023/04/18 03:05:17;;;;;;;;;;;;;;;;;;5056263;28;20026;-66
2023/04/18 03:07:43;;;;;;;;;;;;;;;;;;5055753;28;19956;-66
2023/04/18 03:10:09;;;;;;;;;;;;;;;;;;5055942;28;19999;-66
2023/04/18 03:12:35;;;;;;;;;;;;;;;;;;5055625;28;19956;-66
2023/04/18 03:15:01;;;;;;;;;;;;;;;;;;5055843;28;19964;-66
2023/04/18 03:17:27;;;;;;;;;;;;;;;;;;5055620;28;20006;-66
2023/04/18 03:19:53;;;;;;;;;;;;;;;;;;5055504;28;19956;-66
2023/04/18 03:22:19;;;;;;;;;;;;;;;;;;5055258;28;19998;-66
2023/04/18 03:24:45;;;;;;;;;;;;;;;;;;5055927;28;20029;-65
2023/04/18 03:27:10;;;;;;;;;;;;;;;;;;5055652;28;19955;-66
2023/04/18 03:29:37;;;;;;;;;;;;;;;;;;5055229;28;20452;-66
2023/04/18 03:32:03;;;;;;;;;;;;;;;;;;5054791;28;20424;-65
2023/04/18 03:34:29;;;;;;;;;;;;;;;;;;5055478;28;19977;-66
2023/04/18 03:36:55;;;;;;;;;;;;;;;;;;5055231;28;19956;-65
2023/04/18 03:39:20;;;;;;;;;;;;;;;;;;5055430;28;19963;-66
2023/04/18 03:41:46;;;;;;;;;;;;;;;;;;5055090;28;19955;-67
2023/04/18 03:44:12;;;;;;;;;;;;;;;;;;5055277;28;20015;-66
2023/04/18 03:46:38;;;;;;;;;;;;;;;;;;5055742;28;20430;-67
2023/04/18 03:49:04;;;;;;;;;;;;;;;;;;5055246;28;19956;-66
2023/04/18 03:51:30;;;;;;;;;;;;;;;;;;5054886;28;20416;-65
2023/04/18 03:53:56;;;;;;;;;;;;;;;;;;5054877;28;20035;-66
2023/04/18 03:56:22;;;;;;;;;;;;;;;;;;5054833;28;20366;-65
2023/04/18 03:58:48;;;;;;;;;;;;;;;;;;5054762;28;19967;-66
2023/04/18 04:01:14;;;;;;;;;;;;;;;;;;5055284;28;19982;-66
2023/04/18 04:03:40;;;;;;;;;;;;;;;;;;5054584;28;19975;-66
2023/04/18 04:06:05;;;;;;;;;;;;;;;;;;5054902;28;20053;-66
2023/04/18 04:08:31;;;;;;;;;;;;;;;;;;5054562;28;19956;-66
2023/04/18 04:10:57;;;;;;;;;;;;;;;;;;5054834;28;19960;-66
2023/04/18 04:13:23;;;;;;;;;;;;;;;;;;5054499;28;20324;-67
2023/04/18 04:15:49;;;;;;;;;;;;;;;;;;5054460;28;19955;-66
2023/04/18 04:18:15;;;;;;;;;;;;;;;;;;5054686;28;19956;-66
2023/04/18 04:20:41;;;;;;;;;;;;;;;;;;5053085;28;20317;-66
2023/04/18 04:23:07;;;;;;;;;;;;;;;;;;5054169;28;19998;-65
2023/04/18 04:25:33;;;;;;;;;;;;;;;;;;5054194;28;20026;-65
2023/04/18 04:28:01;;;;;;;;;;;;;;;;;;5054766;28;20319;-66
2023/04/18 04:30:27;;;;;;;;;;;;;;;;;;5054104;28;20515;-66
2023/04/18 04:32:55;;;;;;;;;;;;;;;;;;5054065;28;20066;-67
2023/04/18 04:35:21;;;;;;;;;;;;;;;;;;5054329;28;20373;-66
2023/04/18 04:37:46;;;;;;;;;;;;;;;;;;5054090;28;19991;-66
2023/04/18 04:40:14;;;;;;;;;;;;;;;;;;5053956;28;19967;-66
2023/04/18 04:42:41;;;;;;;;;;;;;;;;;;5054562;28;20415;-66
2023/04/18 04:45:08;;;;;;;;;;;;;;;;;;5053929;28;19976;-66
2023/04/18 04:47:35;;;;;;;;;;;;;;;;;;5053920;28;20436;-66
2023/04/18 04:50:00;;;;;;;;;;;;;;;;;;5054446;28;20053;-67
2023/04/18 04:52:26;;;;;;;;;;;;;;;;;;5053849;28;19956;-66
2023/04/18 04:54:52;;;;;;;;;;;;;;;;;;5053817;28;20051;-66
2023/04/18 04:57:18;;;;;;;;;;;;;;;;;;5054022;28;19960;-65
2023/04/18 04:59:44;;;;;;;;;;;;;;;;;;5053718;28;19983;-66
2023/04/18 05:02:10;;;;;;;;;;;;;;;;;;5054251;28;20050;-66
2023/04/18 05:04:36;;;;;;;;;;;;;;;;;;5053572;28;20512;-65
2023/04/18 05:07:02;;;;;;;;;;;;;;;;;;5053942;28;19963;-65
2023/04/18 05:09:28;;;;;;;;;;;;;;;;;;5053642;28;20042;-66
2023/04/18 05:11:54;;;;;;;;;;;;;;;;;;5053621;28;19996;-66
2023/04/18 05:14:20;;;;;;;;;;;;;;;;;;5054139;28;20316;-66
2023/04/18 05:16:46;;;;;;;;;;;;;;;;;;5053840;28;20042;-66
2023/04/18 05:19:12;;;;;;;;;;;;;;;;;;5053539;28;20412;-66
2023/04/18 05:21:38;;;;;;;;;;;;;;;;;;5053354;28;20048;-65
2023/04/18 05:24:04;;;;;;;;;;;;;;;;;;5053431;28;20024;-66
2023/04/18 05:26:29;;;;;;;;;;;;;;;;;;5053763;28;20022;-65
2023/04/18 05:28:55;;;;;;;;;;;;;;;;;;5053349;28;20384;-65
2023/04/18 05:31:21;;;;;;;;;;;;;;;;;;5053386;28;19960;-66
2023/04/18 05:33:47;;;;;;;;;;;;;;;;;;5053639;28;19960;-65
2023/04/18 05:36:13;;;;;;;;;;;;;;;;;;5053321;28;19956;-66
2023/04/18 05:38:39;;;;;;;;;;;;;;;;;;5053938;28;19962;-66
2023/04/18 05:41:05;;;;;;;;;;;;;;;;;;5053588;28;20010;-66
2023/04/18 05:43:31;;;;;;;;;;;;;;;;;;5053793;28;20002;-66
2023/04/18 05:45:57;;;;;;;;;;;;;;;;;;5053277;28;19990;-67
2023/04/18 05:48:23;;;;;;;;;;;;;;;;;;5053285;28;20464;-65
2023/04/18 05:50:49;;;;;;;;;;;;;;;;;;5053262;28;19963;-66
2023/04/18 05:53:15;;;;;;;;;;;;;;;;;;5053210;28;19960;-66
2023/04/18 05:55:41;;;;;;;;;;;;;;;;;;5056772;28;19956;-66
2023/04/18 05:58:07;;;;;;;;;;;;;;;;;;5057114;28;20352;-66
2023/04/18 06:00:33;;;;;;;;;;;;;;;;;;5057307;28;19956;-66
2023/04/18 06:02:59;;;;;;;;;;;;;;;;;;5057027;28;20466;-66
2023/04/18 06:05:26;;;;;;;;;;;;;;;;;;5056881;28;20019;-66
2023/04/18 06:07:52;;;;;;;;;;;;;;;;;;5055442;28;20336;-66
2023/04/18 06:10:18;;;;;;;;;;;;;;;;;;5056872;28;19960;-66
2023/04/18 06:12:44;;;;;;;;;;;;;;;;;;5056832;28;20435;-66
2023/04/18 06:15:10;;;;;;;;;;;;;;;;;;5057073;28;20046;-66
2023/04/18 06:17:35;;;;;;;;;;;;;;;;;;5056715;28;19959;-66
2023/04/18 06:20:03;;;;;;;;;;;;;;;;;;5056965;28;19955;-66
2023/04/18 06:22:29;;;;;;;;;;;;;;;;;;5056406;28;19992;-66
2023/04/18 06:24:55;;;;;;;;;;;;;;;;;;5056802;28;19983;-66
2023/04/18 06:27:21;;;;;;;;;;;;;;;;;;5056540;28;19955;-66
2023/04/18 06:29:46;;;;;;;;;;;;;;;;;;5056767;28;20340;-66
2023/04/18 06:32:13;;;;;;;;;;;;;;;;;;5056714;28;19955;-66
2023/04/18 06:34:39;;;;;;;;;;;;;;;;;;5056370;28;19956;-66
2023/04/18 06:37:05;;;;;;;;;;;;;;;;;;5056268;28;19956;-67
2023/04/18 06:39:31;;;;;;;;;;;;;;;;;;5056314;28;20036;-67
2023/04/18 06:41:57;;;;;;;;;;;;;;;;;;5056277;28;19963;-66
2023/04/18 06:44:23;;;;;;;;;;;;;;;;;;5056713;28;20072;-66
2023/04/18 06:46:48;;;;;;;;;;;;;;;;;;5056449;28;19998;-66
2023/04/18 06:49:14;;;;;;;;;;;;;;;;;;5056143;28;20312;-66
2023/04/18 06:51:40;;;;;;;;;;;;;;;;;;5056091;28;19956;-67
2023/04/18 06:54:06;;;;;;;;;;;;;;;;;;5056258;28;20023;-66
2023/04/18 06:56:32;;;;;;;;;;;;;;;;;;5056227;28;19954;-66
2023/04/18 06:58:58;;;;;;;;;;;;;;;;;;5055923;28;19966;-66
2023/04/18 07:01:24;;;;;;;;;;;;;;;;;;5056096;28;19969;-66
2023/04/18 07:03:50;;;;;;;;;;;;;;;;;;5056034;28;19975;-66
2023/04/18 07:06:16;;;;;;;;;;;;;;;;;;5039368;28;19967;-65
2023/04/18 07:08:42;;;;;;;;;;;;;;;;;;5036125;28;19956;-68
2023/04/18 07:11:08;;;;;;;;;;;;;;;;;;5035720;28;19960;-70
2023/04/18 07:13:34;;;;;;;;;;;;;;;;;;5035446;28;19971;-72
2023/04/18 07:16:00;;;;;;;;;;;;;;;;;;5035755;28;20007;-71
2023/04/18 07:18:26;;;;;;;;;;;;;;;;;;5035802;28;19963;-69
2023/04/18 07:20:52;;;;;;;;;;;;;;;;;;5035449;28;20420;-68
2023/04/18 07:23:18;;;;;;;;;;;;;;;;;;5049279;28;19972;-66
2023/04/18 07:25:44;;;;;;;;;;;;;;;;;;5055325;28;19980;-67
2023/04/18 07:28:10;;;;;;;;;;;;;;;;;;5055402;28;19956;-72
2023/04/18 07:30:35;;;;;;;;;;;;;;;;;;5055892;28;19972;-72
2023/04/18 07:33:01;;;;;;;;;;;;;;;;;;5049436;28;19960;-71
2023/04/18 07:35:27;;;;;;;;;;;;;;;;;;5043868;28;19995;-71
2023/04/18 07:37:53;;;;;;;;;;;;;;;;;;5044208;28;19959;-71
2023/04/18 07:40:19;;;;;;;;;;;;;;;;;;5041149;28;19960;-69
2023/04/18 07:42:45;;;;;;;;;;;;;;;;;;5046337;28;19962;-69
2023/04/18 07:45:11;;;;;;;;;;;;;;;;;;5035012;28;20075;-69
2023/04/18 07:47:37;;;;;;;;;;;;;;;;;;5044047;28;19959;-70
2023/04/18 07:50:03;;;;;;;;;;;;;;;;;;5036270;28;20408;-69
2023/04/18 07:52:29;;;;;;;;;;;;;;;;;;5034486;28;20409;-72
2023/04/18 07:54:54;;;;;;;;;;;;;;;;;;5034452;28;19964;-72
2023/04/18 07:57:21;;;;;;;;;;;;;;;;;;5049510;28;19963;-72
2023/04/18 07:59:47;;;;;;;;;;;;;;;;;;5053741;28;19964;-79
2023/04/18 08:02:12;;;;;;;;;;;;;;;;;;5049920;28;19960;-71
2023/04/18 08:04:38;;;;;;;;;;;;;;;;;;5044799;28;19987;-71
2023/04/18 08:07:04;;;;;;;;;;;;;;;;;;5051398;28;20074;-76
2023/04/18 08:09:30;;;;;;;;;;;;;;;;;;5044021;28;19975;-75
2023/04/18 08:11:57;;;;;;;;;;;;;;;;;;5044300;28;19964;-74
2023/04/18 08:14:23;;;;;;;;;;;;;;;;;;5048311;28;19967;-74
2023/04/18 08:16:49;;;;;;;;;;;;;;;;;;5054510;28;19956;-74
2023/04/18 08:19:15;;;;;;;;;;;;;;;;;;5053384;28;20428;-75
2023/04/18 08:21:41;;;;;;;;;;;;;;;;;;5038373;28;19992;-74
2023/04/18 08:24:07;;;;;;;;;;;;;;;;;;5045126;28;20034;-74
2023/04/18 08:26:33;;;;;;;;;;;;;;;;;;5051826;28;19995;-72
2023/04/18 08:28:59;;;;;;;;;;;;;;;;;;5045939;28;19963;-72
2023/04/18 08:31:25;;;;;;;;;;;;;;;;;;5053497;28;19970;-73
2023/04/18 08:33:51;;;;;;;;;;;;;;;;;;5052071;28;20408;-71
2023/04/18 08:36:17;;;;;;;;;;;;;;;;;;5037156;28;20055;-72
2023/04/18 08:38:42;;;;;;;;;;;;;;;;;;5033802;28;20054;-73
2023/04/18 08:41:08;;;;;;;;;;;;;;;;;;5040915;28;20368;-80
2023/04/18 08:43:34;;;;;;;;;;;;;;;;;;5032229;28;19968;-72
2023/04/18 08:46:00;;;;;;;;;;;;;;;;;;5041454;28;19964;-72
2023/04/18 08:48:29;;;;;;;;;;;;;;;;;;5033331;28;19956;-73
2023/04/18 08:50:55;;;;;;;;;;;;;;;;;;5033325;28;19963;-71
2023/04/18 08:53:21;;;;;;;;;;;;;;;;;;5033524;28;20542;-71
2023/04/18 08:55:49;;;;;;;;;;;;;;;;;;5033427;28;20010;-71
2023/04/18 08:58:15;;;;;;;;;;;;;;;;;;5031443;28;20012;-71
2023/04/18 09:00:41;;;;;;;;;;;;;;;;;;5033503;28;20412;-71
2023/04/18 09:03:07;;;;;;;;;;;;;;;;;;5033875;28;20450;-71
2023/04/18 09:05:34;;;;;;;;;;;;;;;;;;5034310;28;19976;-71
2023/04/18 09:08:00;;;;;;;;;;;;;;;;;;5033364;28;19964;-72
2023/04/18 09:10:27;;;;;;;;;;;;;;;;;;5051134;28;19967;-78
2023/04/18 09:12:53;;;;;;;;;;;;;;;;;;5053666;28;20443;-72
2023/04/18 09:15:21;;;;;;;;;;;;;;;;;;5053613;28;20051;-74
2023/04/18 09:17:51;;;;;;;;;;;;;;;;;;5053822;28;19955;-74
2023/04/18 09:20:17;;;;;;;;;;;;;;;;;;5053849;28;20411;-75
2023/04/18 09:22:45;;;;;;;;;;;;;;;;;;5053208;28;19992;-73
2023/04/18 09:25:13;;;;;;;;;;;;;;;;;;5053484;28;19976;-72
2023/04/18 09:27:39;;;;;;;;;;;;;;;;;;5050805;28;20461;-73
2023/04/18 09:30:05;;;;;;;;;;;;;;;;;;5055352;28;20074;-76
2023/04/18 09:32:32;;;;;;;;;;;;;;;;;;5045577;28;20018;-74
2023/04/18 09:34:57;;;;;;;;;;;;;;;;;;5040728;28;19968;-74
2023/04/18 09:37:23;;;;;;;;;;;;;;;;;;5044165;28;19960;-77
2023/04/18 09:39:49;;;;;;;;;;;;;;;;;;5054672;28;19968;-75
2023/04/18 09:42:15;;;;;;;;;;;;;;;;;;5051082;28;19963;-75
2023/04/18 09:44:41;;;;;;;;;;;;;;;;;;5037834;28;19987;-73
2023/04/18 09:47:07;;;;;;;;;;;;;;;;;;5037334;28;20014;-74
2023/04/18 09:49:34;;;;;;;;;;;;;;;;;;5036699;28;19964;-73
2023/04/18 09:51:59;;;;;;;;;;;;;;;;;;5036557;28;19964;-73
2023/04/18 09:54:25;;;;;;;;;;;;;;;;;;5037017;28;20450;-74
2023/04/18 09:56:52;;;;;;;;;;;;;;;;;;5037505;28;19956;-75
2023/04/18 09:59:18;;;;;;;;;;;;;;;;;;5038960;28;20014;-76
2023/04/18 10:01:47;;;;;;;;;;;;;;;;;;5047559;28;19960;-74
2023/04/18 10:04:13;;;;;;;;;;;;;;;;;;5057483;28;20070;-76
2023/04/18 10:06:40;;;;;;;;;;;;;;;;;;5039831;28;20057;-75
2023/04/18 10:09:07;;;;;;;;;;;;;;;;;;5056890;28;20331;-76
2023/04/18 10:11:33;;;;;;;;;;;;;;;;;;5056865;28;19991;-72
2023/04/18 10:13:58;;;;;;;;;;;;;;;;;;5057019;28;19999;-72
2023/04/18 10:16:24;;;;;;;;;;;;;;;;;;5057078;28;19956;-74
2023/04/18 10:18:50;;;;;;;;;;;;;;;;;;5038568;28;19969;-74
2023/04/18 10:21:16;;;;;;;;;;;;;;;;;;5036577;28;19995;-71
2023/04/18 10:23:42;;;;;;;;;;;;;;;;;;5037429;28;19957;-69
2023/04/18 10:26:08;;;;;;;;;;;;;;;;;;5036961;28;20387;-69
2023/04/18 10:28:34;;;;;;;;;;;;;;;;;;5036627;28;19956;-69
2023/04/18 10:31:04;;;;;;;;;;;;;;;;;;5039418;28;19980;-71
2023/04/18 10:33:31;;;;;;;;;;;;;;;;;;5036785;28;19960;-71
2023/04/18 10:35:57;;;;;;;;;;;;;;;;;;5036469;28;19960;-71
2023/04/18 10:38:23;;;;;;;;;;;;;;;;;;5036421;28;19963;-71
2023/04/18 10:40:49;;;;;;;;;;;;;;;;;;5036466;28;19956;-71
2023/04/18 10:43:15;;;;;;;;;;;;;;;;;;5036318;28;19956;-71
2023/04/18 10:45:41;;;;;;;;;;;;;;;;;;5036478;28;20027;-71
2023/04/18 10:48:07;;;;;;;;;;;;;;;;;;5036211;28;20044;-71
2023/04/18 10:50:33;;;;;;;;;;;;;;;;;;5036462;28;19956;-71
2023/04/18 10:52:59;;;;;;;;;;;;;;;;;;5036176;28;20421;-71
2023/04/18 10:55:25;;;;;;;;;;;;;;;;;;5036105;28;20010;-71
2023/04/18 10:57:54;;;;;;;;;;;;;;;;;;5036082;28;20416;-71
2023/04/18 11:00:21;;;;;;;;;;;;;;;;;;5051332;28;20363;-71
2023/04/18 11:02:46;;;;;;;;;;;;;;;;;;5036515;28;20006;-71
2023/04/18 11:05:12;;;;;;;;;;;;;;;;;;5036130;28;20023;-71
2023/04/18 11:07:38;;;;;;;;;;;;;;;;;;5036178;28;19956;-71
2023/04/18 11:10:04;;;;;;;;;;;;;;;;;;5035883;28;20006;-71
2023/04/18 11:12:31;;;;;;;;;;;;;;;;;;5035804;28;20443;-71
2023/04/18 11:14:57;;;;;;;;;;;;;;;;;;5036006;28;20317;-71
2023/04/18 11:17:23;;;;;;;;;;;;;;;;;;5035996;28;20045;-71
2023/04/18 11:19:50;;;;;;;;;;;;;;;;;;5035641;28;19963;-71
2023/04/18 11:22:16;;;;;;;;;;;;;;;;;;5035547;28;19991;-71
2023/04/18 11:24:42;;;;;;;;;;;;;;;;;;5035727;28;19976;-71
2023/04/18 11:27:08;;;;;;;;;;;;;;;;;;5035500;28;20018;-71
2023/04/18 11:29:34;;;;;;;;;;;;;;;;;;5035426;28;19973;-71
2023/04/18 11:32:00;;;;;;;;;;;;;;;;;;5035714;28;20047;-71
2023/04/18 11:34:25;;;;;;;;;;;;;;;;;;5035383;28;19960;-71
2023/04/18 11:36:51;;;;;;;;;;;;;;;;;;5035572;28;19956;-71
2023/04/18 11:39:17;;;;;;;;;;;;;;;;;;5035571;28;20000;-71
2023/04/18 11:41:49;;;;;;;;;;;;;;;;;;5035820;28;19957;-71
2023/04/18 11:44:15;;;;;;;;;;;;;;;;;;5035436;28;19984;-71
2023/04/18 11:46:40;;;;;;;;;;;;;;;;;;5035086;28;19956;-71
2023/04/18 11:49:06;;;;;;;;;;;;;;;;;;5035635;28;19965;-71
2023/04/18 11:51:37;;;;;;;;;;;;;;;;;;5034485;28;20015;-71
2023/04/18 11:54:03;;;;;;;;;;;;;;;;;;5035581;28;19956;-71
2023/04/18 11:56:29;;;;;;;;;;;;;;;;;;5034942;28;19963;-71
2023/04/18 11:58:55;;;;;;;;;;;;;;;;;;5035479;28;20416;-71
2023/04/18 12:01:21;;;;;;;;;;;;;;;;;;5034858;28;19960;-71
2023/04/18 12:03:47;;;;;;;;;;;;;;;;;;5035293;28;20405;-71
2023/04/18 12:06:13;;;;;;;;;;;;;;;;;;5035066;28;19963;-71
2023/04/18 12:08:39;;;;;;;;;;;;;;;;;;5035288;28;19956;-71
2023/04/18 12:11:05;;;;;;;;;;;;;;;;;;5034696;28;19995;-71
2023/04/18 12:13:30;;;;;;;;;;;;;;;;;;5034665;28;20375;-71
2023/04/18 12:15:57;;;;;;;;;;;;;;;;;;5035158;28;20403;-71
2023/04/18 12:18:23;;;;;;;;;;;;;;;;;;5049959;28;19960;-71
2023/04/18 12:20:49;;;;;;;;;;;;;;;;;;5034648;28;19961;-71
2023/04/18 12:23:16;;;;;;;;;;;;;;;;;;5034458;28;20408;-71
2023/04/18 12:25:42;;;;;;;;;;;;;;;;;;5034327;28;20405;-71
2023/04/18 12:28:08;;;;;;;;;;;;;;;;;;5034359;28;19968;-71
2023/04/18 12:30:34;;;;;;;;;;;;;;;;;;5034256;28;19972;-71
2023/04/18 12:33:00;;;;;;;;;;;;;;;;;;5034291;28;19957;-71
2023/04/18 12:35:26;;;;;;;;;;;;;;;;;;5034769;28;19957;-71
2023/04/18 12:37:52;;;;;;;;;;;;;;;;;;5034513;28;19956;-71
2023/04/18 12:40:18;;;;;;;;;;;;;;;;;;5034205;28;20008;-71
2023/04/18 12:42:44;;;;;;;;;;;;;;;;;;5034380;28;19957;-71
2023/04/18 12:45:09;;;;;;;;;;;;;;;;;;5033943;28;19983;-71
2023/04/18 12:47:35;;;;;;;;;;;;;;;;;;5034305;28;20325;-71
2023/04/18 12:50:01;;;;;;;;;;;;;;;;;;5033980;28;20047;-71
2023/04/18 12:52:28;;;;;;;;;;;;;;;;;;5033998;28;19957;-72
2023/04/18 12:54:55;;;;;;;;;;;;;;;;;;5034203;28;20474;-71
2023/04/18 12:57:21;;;;;;;;;;;;;;;;;;5033889;28;19956;-71
2023/04/18 12:59:47;;;;;;;;;;;;;;;;;;5034141;28;20433;-71
2023/04/18 13:02:13;;;;;;;;;;;;;;;;;;5034114;28;20002;-71
2023/04/18 13:04:39;;;;;;;;;;;;;;;;;;5033410;28;19976;-71
2023/04/18 13:07:05;;;;;;;;;;;;;;;;;;5033794;28;19964;-71
2023/04/18 13:09:31;;;;;;;;;;;;;;;;;;5033754;28;19957;-72
2023/04/18 13:11:57;;;;;;;;;;;;;;;;;;5033993;28;20317;-71
2023/04/18 13:14:23;;;;;;;;;;;;;;;;;;5033669;28;20047;-71
2023/04/18 13:16:49;;;;;;;;;;;;;;;;;;5033931;28;20054;-71
2023/04/18 13:19:15;;;;;;;;;;;;;;;;;;5033910;28;19956;-71
2023/04/18 13:21:40;;;;;;;;;;;;;;;;;;5033409;28;20468;-71
2023/04/18 13:24:06;;;;;;;;;;;;;;;;;;5033534;28;19976;-71
2023/04/18 13:26:36;;;;;;;;;;;;;;;;;;5033571;28;19995;-71
2023/04/18 13:29:02;;;;;;;;;;;;;;;;;;5034060;28;19957;-71
2023/04/18 13:31:28;;;;;;;;;;;;;;;;;;5033559;28;20451;-71
2023/04/18 13:33:54;;;;;;;;;;;;;;;;;;5033442;28;20059;-71
2023/04/18 13:36:20;;;;;;;;;;;;;;;;;;5033496;28;19963;-71
2023/04/18 13:38:46;;;;;;;;;;;;;;;;;;5034040;28;20364;-71
2023/04/18 13:41:11;;;;;;;;;;;;;;;;;;5033483;28;19957;-71
2023/04/18 13:43:37;;;;;;;;;;;;;;;;;;5033675;28;20005;-71
2023/04/18 13:46:03;;;;;;;;;;;;;;;;;;5033651;28;19963;-71
2023/04/18 13:48:29;;;;;;;;;;;;;;;;;;5033413;28;20022;-71
2023/04/18 13:50:55;;;;;;;;;;;;;;;;;;5033403;28;20328;-71
2023/04/18 13:53:21;;;;;;;;;;;;;;;;;;5033376;28;19956;-71
2023/04/18 13:55:47;;;;;;;;;;;;;;;;;;5033856;28;20431;-71
2023/04/18 13:58:13;;;;;;;;;;;;;;;;;;5033286;28;19963;-71
2023/04/18 14:00:39;;;;;;;;;;;;;;;;;;5033280;28;20003;-71
2023/04/18 14:03:05;;;;;;;;;;;;;;;;;;5033817;28;20055;-71
2023/04/18 14:05:32;;;;;;;;;;;;;;;;;;5033162;28;19977;-71
2023/04/18 14:08:01;;;;;;;;;;;;;;;;;;5048261;28;19964;-71
2023/04/18 14:10:27;;;;;;;;;;;;;;;;;;5033221;28;20403;-71
2023/04/18 14:12:53;;;;;;;;;;;;;;;;;;5033203;28;19991;-72
2023/04/18 14:15:19;;;;;;;;;;;;;;;;;;5034729;28;19956;-71
2023/04/18 14:17:45;;;;;;;;;;;;;;;;;;5036861;28;20046;-71
2023/04/18 14:20:10;;;;;;;;;;;;;;;;;;5037426;28;20409;-71
2023/04/18 14:22:36;;;;;;;;;;;;;;;;;;5036544;28;20372;-71
2023/04/18 14:25:02;;;;;;;;;;;;;;;;;;5036621;28;19976;-71
2023/04/18 14:27:28;;;;;;;;;;;;;;;;;;5036969;28;20035;-71
2023/04/18 14:29:54;;;;;;;;;;;;;;;;;;5036588;28;20057;-71
2023/04/18 14:32:20;;;;;;;;;;;;;;;;;;5036906;28;20007;-71
2023/04/18 14:34:46;;;;;;;;;;;;;;;;;;5036755;28;20404;-71
2023/04/18 14:37:12;;;;;;;;;;;;;;;;;;5037045;28;19963;-71
2023/04/18 14:39:38;;;;;;;;;;;;;;;;;;5036433;28;20047;-71
2023/04/18 14:42:03;;;;;;;;;;;;;;;;;;5036390;28;19956;-71
2023/04/18 14:44:30;;;;;;;;;;;;;;;;;;5036841;28;20420;-71
2023/04/18 14:46:56;;;;;;;;;;;;;;;;;;5051438;28;19960;-71
2023/04/18 14:49:22;;;;;;;;;;;;;;;;;;5036278;28;20432;-71
2023/04/18 14:51:48;;;;;;;;;;;;;;;;;;5036494;28;19967;-71
2023/04/18 14:54:14;;;;;;;;;;;;;;;;;;5036178;28;20395;-71
2023/04/18 14:56:40;;;;;;;;;;;;;;;;;;5036097;28;19960;-71
2023/04/18 14:59:06;;;;;;;;;;;;;;;;;;5036002;28;19960;-71
2023/04/18 15:01:32;;;;;;;;;;;;;;;;;;5036272;28;19956;-71
2023/04/18 15:03:58;;;;;;;;;;;;;;;;;;5035912;28;19984;-71
2023/04/18 15:06:24;;;;;;;;;;;;;;;;;;5036473;28;19956;-71
2023/04/18 15:08:50;;;;;;;;;;;;;;;;;;5035895;28;20060;-71
2023/04/18 15:11:16;;;;;;;;;;;;;;;;;;5035848;28;20419;-71
2023/04/18 15:13:42;;;;;;;;;;;;;;;;;;5035787;28;19956;-71
2023/04/18 15:16:07;;;;;;;;;;;;;;;;;;5036034;28;20000;-71
2023/04/18 15:18:34;;;;;;;;;;;;;;;;;;5035681;28;19963;-71
2023/04/18 15:21:00;;;;;;;;;;;;;;;;;;5035444;28;19963;-71
2023/04/18 15:23:26;;;;;;;;;;;;;;;;;;5035922;28;19960;-71
2023/04/18 15:25:52;;;;;;;;;;;;;;;;;;5035572;28;20022;-72
2023/04/18 15:28:18;;;;;;;;;;;;;;;;;;5035317;28;19960;-71
2023/04/18 15:30:44;;;;;;;;;;;;;;;;;;5035386;28;20022;-71
2023/04/18 15:33:10;;;;;;;;;;;;;;;;;;5035452;28;19964;-71
2023/04/18 15:35:37;;;;;;;;;;;;;;;;;;5035433;28;20039;-71
2023/04/18 15:38:03;;;;;;;;;;;;;;;;;;5050489;28;19960;-71
2023/04/18 15:40:29;;;;;;;;;;;;;;;;;;5035851;28;20472;-71
2023/04/18 15:42:56;;;;;;;;;;;;;;;;;;5035277;28;19963;-71
2023/04/18 15:45:22;;;;;;;;;;;;;;;;;;5035416;28;19976;-71
2023/04/18 15:47:48;;;;;;;;;;;;;;;;;;5035177;28;19968;-71
2023/04/18 15:50:14;;;;;;;;;;;;;;;;;;5035103;28;19956;-71
2023/04/18 15:52:40;;;;;;;;;;;;;;;;;;5035361;28;19999;-71
2023/04/18 15:55:07;;;;;;;;;;;;;;;;;;5035000;28;19956;-71
2023/04/18 15:57:33;;;;;;;;;;;;;;;;;;5035566;28;19964;-71
2023/04/18 15:59:59;;;;;;;;;;;;;;;;;;5035196;28;19956;-71
2023/04/18 16:02:25;;;;;;;;;;;;;;;;;;5035460;28;19982;-71
2023/04/18 16:04:51;;;;;;;;;;;;;;;;;;5034758;28;19983;-71
2023/04/18 16:07:17;;;;;;;;;;;;;;;;;;5034790;28;19956;-71
2023/04/18 16:09:43;;;;;;;;;;;;;;;;;;5034743;28;20050;-71
2023/04/18 16:12:09;;;;;;;;;;;;;;;;;;5034704;28;20003;-71
2023/04/18 16:14:35;;;;;;;;;;;;;;;;;;5034943;28;20054;-71
2023/04/18 16:17:01;;;;;;;;;;;;;;;;;;5034636;28;19999;-71
2023/04/18 16:19:27;;;;;;;;;;;;;;;;;;5035101;28;20026;-71
2023/04/18 16:21:53;;;;;;;;;;;;;;;;;;5034309;28;20472;-71
2023/04/18 16:24:19;;;;;;;;;;;;;;;;;;5034671;28;19983;-71
2023/04/18 16:26:45;;;;;;;;;;;;;;;;;;5034399;28;19956;-71
2023/04/18 16:29:11;;;;;;;;;;;;;;;;;;5034323;28;20038;-71
2023/04/18 16:31:37;;;;;;;;;;;;;;;;;;5034609;28;19987;-71
2023/04/18 16:34:03;;;;;;;;;;;;;;;;;;5034320;28;19956;-71
2023/04/18 16:36:29;;;;;;;;;;;;;;;;;;5034528;28;19955;-71